airplane image

note

mic

electronics

Fly Music Sound

What-else

 

 

 

 

LSZB

[Source: ADDS]
METAR
LSZB 040120Z AUTO VRB02KT 6000 OVC014 M01/M02 Q1022 =
TAF

LSZG

[Source: ADDS]
METAR
LSZG 040120Z AUTO 07003KT 9999 OVC018 01/M00 Q1023 =
TAF

LSZH

[Source: ADDS]
METAR
LSZH 040120Z 31003KT 9999 OVC022 M00/M03 Q1023 NOSIG =
TAF
LSZH 032325Z 0400/0506 VRB03KT 9999 OVC025 TX02/0414Z TNM01/0418Z TN00/0505Z BECMG 0400/0404 FEW008 BKN012 PROB40 0403/0409 4000 BR BKN008 TEMPO 0408/0415 04005KT PROB40 0412/0418 SCT015 BECMG 0418/0421 4000 BR BKN008 PROB40 0421/0503 2000 BCFG BKN005 PROB30 0501/0506 0400 FZFG VV002 =